Аэропорт: Чебоксары. Чебоксары

ICAO: UWKS

METAR:
2020-08-13 11:00:00
UWKS 131100Z 09005MPS 3100 -SHRA OVC003CB 13/13 Q1006 R06/290355 NOSIG RMK QFE739
METAR:
2020-08-13 07:59:00
TAF UWKS 130759Z 1309/1318 07005G12MPS 6000 -SHRA BKN010CB TX15/1312Z TN12/1318Z TEMPO 1309/1317 2100 -SHRA BR BKN005CB